Weather Melbourne :: Current Conditions and Historical Data

 
Daily Summary for September 17, 2014 Units:  Both    English   Metric
« Previous Day
Next Day »
Daily Weekly Monthly Yearly Custom
  Current: High: Low: Average:
Temperature: 51.3 °F /  10.7 °C 59.9 °F /  15.5 °C 44.3 °F /  6.8 °C 50.8 °F /  10.4 °C
Dew Point: 42.9 °F /  6.1 °C 46.7 °F /  8.2 °C 37.1 °F /  2.8 °C 44 °F /  6.7 °C
Humidity: 73 % 95 % 44 % 79 %
Wind Speed: 11.5 mph /  18.5 km/h 27.6 mph /  44.4 km/h - 9.4 mph /  15.1 km/h
Wind Gust: 11.5 mph /  18.5 km/h 27.6 mph /  44.4 km/h - -
Wind:SSW - - SW
Pressure: 30.03 in /  1016.8 hPa 30.03 in /  1016.8 hPa 29.90 in /  1012.4 hPa -
Precipitation: 0.03 in /  0.76 mm      
Melbourne, Australia Weather Graphs
 
 
Melbourne, current snapshot. Courtesy of citylink.com.au
Weather Melbourne

Melbourne Weather Radar




Weather in Melbourne, AU
Hourly Data for September 17, 2014
Time Temperature Dew Point Pressure Wind Wind Speed Wind Gust Humidity Rainfall Rate (Hourly) solar Conditions
00:01 46.0 °F /  7.8 °C 43.5 °F /  6.4 °C 29.93 in /  1013.4 hPa NE 1.2 mph /  1.9 km/h 1.2 mph /  1.9 km/h 91 % 0.00 in /  0 mm 0.0 W/m2 CLR
00:06 46.1 °F /  7.8 °C 43.6 °F /  6.4 °C 29.93 in /  1013.4 hPa Calm     91 % 0.00 in /  0 mm 0.0 W/m2 CLR
00:11 46.1 °F /  7.8 °C 43.6 °F /  6.4 °C 29.92 in /  1013.1 hPa NE 1.2 mph /  1.9 km/h 1.2 mph /  1.9 km/h 91 % 0.00 in /  0 mm 0.0 W/m2 CLR
00:16 46.1 °F /  7.8 °C 43.9 °F /  6.6 °C 29.92 in /  1013.1 hPa NNE 1.2 mph /  1.9 km/h 1.2 mph /  1.9 km/h 92 % 0.00 in /  0 mm 0.0 W/m2 CLR
00:21 46.2 °F /  7.9 °C 44.0 °F /  6.7 °C 29.93 in /  1013.4 hPa NE 2.3 mph /  3.7 km/h 2.3 mph /  3.7 km/h 92 % 0.00 in /  0 mm 0.0 W/m2 CLR
00:26 46.2 °F /  7.9 °C 44.0 °F /  6.7 °C 29.92 in /  1013.1 hPa NE 2.3 mph /  3.7 km/h 2.3 mph /  3.7 km/h 92 % 0.00 in /  0 mm 0.0 W/m2 CLR
00:31 46.2 °F /  7.9 °C 44.0 °F /  6.7 °C 29.92 in /  1013.1 hPa Calm     92 % 0.00 in /  0 mm 0.0 W/m2 CLR
00:36 46.1 °F /  7.8 °C 43.9 °F /  6.6 °C 29.92 in /  1013.1 hPa NE 2.3 mph /  3.7 km/h 2.3 mph /  3.7 km/h 92 % 0.00 in /  0 mm 0.0 W/m2 CLR
00:41 46.1 °F /  7.8 °C 43.9 °F /  6.6 °C 29.92 in /  1013.1 hPa NE 3.0 mph /  4.8 km/h 3.0 mph /  4.8 km/h 92 % 0.00 in /  0 mm 0.0 W/m2 CLR
00:46 46.0 °F /  7.8 °C 43.8 °F /  6.6 °C 29.92 in /  1013.1 hPa NE 3.5 mph /  5.6 km/h 3.5 mph /  5.6 km/h 92 % 0.00 in /  0 mm 0.0 W/m2 CLR
00:51 45.9 °F /  7.7 °C 43.7 °F /  6.5 °C 29.92 in /  1013.1 hPa NE 3.5 mph /  5.6 km/h 3.5 mph /  5.6 km/h 92 % 0.00 in /  0 mm 0.0 W/m2 CLR
00:56 45.8 °F /  7.7 °C 43.6 °F /  6.4 °C 29.92 in /  1013.1 hPa NNE 4.6 mph /  7.4 km/h 4.6 mph /  7.4 km/h 92 % 0.00 in /  0 mm 0.0 W/m2 CLR
01:01 45.8 °F /  7.7 °C 43.6 °F /  6.4 °C 29.92 in /  1013.1 hPa NNE 3.5 mph /  5.6 km/h 3.5 mph /  5.6 km/h 92 % 0.00 in /  0 mm 0.0 W/m2 CLR
01:06 45.8 °F /  7.7 °C 43.9 °F /  6.6 °C 29.92 in /  1013.1 hPa NE 2.3 mph /  3.7 km/h 2.3 mph /  3.7 km/h 93 % 0.00 in /  0 mm 0.0 W/m2 CLR
01:07 45.8 °F /  7.7 °C 43.9 °F /  6.6 °C 29.92 in /  1013.1 hPa NE 2.3 mph /  3.7 km/h 2.3 mph /  3.7 km/h 93 % 0.00 in /  0 mm 0.0 W/m2 CLR
01:12 45.8 °F /  7.7 °C 43.9 °F /  6.6 °C 29.92 in /  1013.1 hPa NNE 3.5 mph /  5.6 km/h 3.5 mph /  5.6 km/h 93 % 0.00 in /  0 mm 0.0 W/m2 CLR
01:17 45.8 °F /  7.7 °C 43.9 °F /  6.6 °C 29.92 in /  1013.1 hPa North 3.5 mph /  5.6 km/h 3.5 mph /  5.6 km/h 93 % 0.00 in /  0 mm 0.0 W/m2 CLR
01:22 45.8 °F /  7.7 °C 43.9 °F /  6.6 °C 29.92 in /  1013.1 hPa NNE 3.5 mph /  5.6 km/h 3.5 mph /  5.6 km/h 93 % 0.00 in /  0 mm 0.0 W/m2 CLR
01:27 45.8 °F /  7.7 °C 43.9 °F /  6.6 °C 29.92 in /  1013.1 hPa NNE 3.5 mph /  5.6 km/h   93 % 0.00 in /  0 mm 0.0 W/m2 CLR
01:32 45.8 °F /  7.7 °C 43.9 °F /  6.6 °C 29.92 in /  1013.1 hPa Calm     93 % 0.00 in /  0 mm 0.0 W/m2 CLR
01:37 45.7 °F /  7.6 °C 43.8 °F /  6.6 °C 29.92 in /  1013.1 hPa Calm     93 % 0.00 in /  0 mm 0.0 W/m2 CLR
01:42 45.5 °F /  7.5 °C 43.6 °F /  6.4 °C 29.91 in /  1012.8 hPa Calm     93 % 0.00 in /  0 mm 0.0 W/m2 CLR
01:47 45.4 °F /  7.4 °C 43.5 °F /  6.4 °C 29.91 in /  1012.8 hPa Calm     93 % 0.00 in /  0 mm 0.0 W/m2 CLR
01:52 45.3 °F /  7.4 °C 43.4 °F /  6.3 °C 29.91 in /  1012.8 hPa Calm     93 % 0.00 in /  0 mm 0.0 W/m2 CLR
01:57 45.1 °F /  7.3 °C 43.2 °F /  6.2 °C 29.91 in /  1012.8 hPa Calm     93 % 0.00 in /  0 mm 0.0 W/m2 CLR
02:02 45.0 °F /  7.2 °C 43.1 °F /  6.2 °C 29.91 in /  1012.8 hPa NE 2.3 mph /  3.7 km/h 2.3 mph /  3.7 km/h 93 % 0.00 in /  0 mm 0.0 W/m2 BKN
02:07 44.9 °F /  7.2 °C 43.0 °F /  6.1 °C 29.91 in /  1012.8 hPa NNE 3.5 mph /  5.6 km/h 3.5 mph /  5.6 km/h 93 % 0.00 in /  0 mm 0.0 W/m2 BKN
02:12 44.7 °F /  7.1 °C 42.8 °F /  6 °C 29.91 in /  1012.8 hPa NNE 3.5 mph /  5.6 km/h 3.5 mph /  5.6 km/h 93 % 0.00 in /  0 mm 0.0 W/m2 BKN
02:17 44.7 °F /  7.1 °C 42.8 °F /  6 °C 29.91 in /  1012.8 hPa North 3.5 mph /  5.6 km/h 3.5 mph /  5.6 km/h 93 % 0.00 in /  0 mm 0.0 W/m2 BKN
02:22 44.7 °F /  7.1 °C 42.8 °F /  6 °C 29.91 in /  1012.8 hPa NNE 3.5 mph /  5.6 km/h 3.5 mph /  5.6 km/h 93 % 0.01 in /  0.25 mm 0.0 W/m2 RA
02:27 44.6 °F /  7 °C 42.7 °F /  5.9 °C 29.91 in /  1012.8 hPa North 3.5 mph /  5.6 km/h 3.5 mph /  5.6 km/h 93 % 0.01 in /  0.25 mm 0.0 W/m2 BKN
02:32 44.5 °F /  6.9 °C 42.6 °F /  5.9 °C 29.91 in /  1012.8 hPa NE 2.3 mph /  3.7 km/h 2.3 mph /  3.7 km/h 93 % 0.01 in /  0.25 mm 0.0 W/m2 BKN
02:37 44.5 °F /  6.9 °C 42.6 °F /  5.9 °C 29.91 in /  1012.8 hPa NE 2.3 mph /  3.7 km/h 2.3 mph /  3.7 km/h 93 % 0.01 in /  0.25 mm 0.0 W/m2 BKN
02:42 44.4 °F /  6.9 °C 42.5 °F /  5.8 °C 29.91 in /  1012.8 hPa Calm     93 % 0.01 in /  0.25 mm 0.0 W/m2 BKN
02:47 44.3 °F /  6.8 °C 42.4 °F /  5.8 °C 29.91 in /  1012.8 hPa Calm     93 % 0.01 in /  0.25 mm 0.0 W/m2 BKN
02:52 44.3 °F /  6.8 °C 42.4 °F /  5.8 °C 29.91 in /  1012.8 hPa NNE 3.5 mph /  5.6 km/h 3.5 mph /  5.6 km/h 93 % 0.01 in /  0.25 mm 0.0 W/m2 BKN
02:57 44.3 °F /  6.8 °C 42.7 °F /  5.9 °C 29.91 in /  1012.8 hPa NNE 2.3 mph /  3.7 km/h 2.3 mph /  3.7 km/h 94 % 0.01 in /  0.25 mm 0.0 W/m2 BKN
03:02 44.4 °F /  6.9 °C 42.8 °F /  6 °C 29.91 in /  1012.8 hPa NNE 2.3 mph /  3.7 km/h 2.3 mph /  3.7 km/h 94 % 0.01 in /  0.25 mm 0.0 W/m2 SCT
03:07 44.5 °F /  6.9 °C 42.9 °F /  6.1 °C 29.91 in /  1012.8 hPa NNE 2.3 mph /  3.7 km/h 2.3 mph /  3.7 km/h 94 % 0.01 in /  0.25 mm 0.0 W/m2 SCT
03:12 44.6 °F /  7 °C 43.0 °F /  6.1 °C 29.91 in /  1012.8 hPa Calm     94 % 0.01 in /  0.25 mm 0.0 W/m2 SCT
03:14 44.6 °F /  7 °C 43.0 °F /  6.1 °C 29.91 in /  1012.8 hPa NNE 1.2 mph /  1.9 km/h 1.2 mph /  1.9 km/h 94 % 0.01 in /  0.25 mm 0.0 W/m2 SCT
03:19 44.5 °F /  6.9 °C 42.9 °F /  6.1 °C 29.91 in /  1012.8 hPa Calm     94 % 0.00 in /  0 mm 0.0 W/m2 SCT
03:24 44.4 °F /  6.9 °C 42.8 °F /  6 °C 29.91 in /  1012.8 hPa North 2.3 mph /  3.7 km/h 2.3 mph /  3.7 km/h 94 % 0.00 in /  0 mm 0.0 W/m2 SCT
03:29 44.5 °F /  6.9 °C 42.9 °F /  6.1 °C 29.91 in /  1012.8 hPa North 2.3 mph /  3.7 km/h 2.3 mph /  3.7 km/h 94 % 0.00 in /  0 mm 0.0 W/m2 SCT
03:35 44.6 °F /  7 °C 43.0 °F /  6.1 °C 29.90 in /  1012.4 hPa North 1.2 mph /  1.9 km/h   94 % 0.00 in /  0 mm 0.0 W/m2 SCT
03:40 44.7 °F /  7.1 °C 43.1 °F /  6.2 °C 29.91 in /  1012.8 hPa North 1.2 mph /  1.9 km/h 1.2 mph /  1.9 km/h 94 % 0.00 in /  0 mm 0.0 W/m2 SCT
03:45 44.8 °F /  7.1 °C 43.2 °F /  6.2 °C 29.91 in /  1012.8 hPa North 3.5 mph /  5.6 km/h 3.5 mph /  5.6 km/h 94 % 0.00 in /  0 mm 0.0 W/m2 SCT
03:50 44.8 °F /  7.1 °C 43.2 °F /  6.2 °C 29.91 in /  1012.8 hPa NNW 3.0 mph /  4.8 km/h 3.0 mph /  4.8 km/h 94 % 0.00 in /  0 mm 0.0 W/m2 SCT
03:55 44.9 °F /  7.2 °C 43.3 °F /  6.3 °C 29.91 in /  1012.8 hPa Calm   3.0 mph /  4.8 km/h 94 % 0.00 in /  0 mm 0.0 W/m2 SCT
04:00 45.0 °F /  7.2 °C 43.4 °F /  6.3 °C 29.91 in /  1012.8 hPa Calm   4.0 mph /  6.4 km/h 94 % 0.00 in /  0 mm 0.0 W/m2 SCT
04:05 45.2 °F /  7.3 °C 43.6 °F /  6.4 °C 29.91 in /  1012.8 hPa NW 1.0 mph /  1.6 km/h 5.0 mph /  8 km/h 94 % 0.00 in /  0 mm 0.0 W/m2 SCT
04:10 45.4 °F /  7.4 °C 44.1 °F /  6.7 °C 29.91 in /  1012.8 hPa Calm   5.0 mph /  8 km/h 95 % 0.00 in /  0 mm 0.0 W/m2 SCT
04:15 45.6 °F /  7.6 °C 44.0 °F /  6.7 °C 29.91 in /  1012.8 hPa WNW 1.0 mph /  1.6 km/h 4.0 mph /  6.4 km/h 94 % 0.00 in /  0 mm 0.0 W/m2 SCT
04:20 45.8 °F /  7.7 °C 44.2 °F /  6.8 °C 29.91 in /  1012.8 hPa WNW 2.0 mph /  3.2 km/h 6.0 mph /  9.7 km/h 94 % 0.00 in /  0 mm 0.0 W/m2 SCT
04:25 45.9 °F /  7.7 °C 44.6 °F /  7 °C 29.91 in /  1012.8 hPa NW 1.0 mph /  1.6 km/h 4.0 mph /  6.4 km/h 95 % 0.00 in /  0 mm 0.0 W/m2 SCT
04:30 46.1 °F /  7.8 °C 44.7 °F /  7.1 °C 29.91 in /  1012.8 hPa NW 2.0 mph /  3.2 km/h 2.0 mph /  3.2 km/h 95 % 0.00 in /  0 mm 0.0 W/m2 SCT
04:35 46.2 °F /  7.9 °C 44.8 °F /  7.1 °C 29.91 in /  1012.8 hPa NW 3.5 mph /  5.6 km/h 3.5 mph /  5.6 km/h 95 % 0.00 in /  0 mm 0.0 W/m2 BKN
04:40 46.3 °F /  7.9 °C 44.7 °F /  7.1 °C 29.91 in /  1012.8 hPa NW 2.3 mph /  3.7 km/h 2.3 mph /  3.7 km/h 94 % 0.00 in /  0 mm 0.0 W/m2 BKN
04:45 46.3 °F /  7.9 °C 44.7 °F /  7.1 °C 29.91 in /  1012.8 hPa Calm   1.0 mph /  1.6 km/h 94 % 0.00 in /  0 mm 0.0 W/m2 BKN
04:48 46.4 °F /  8 °C 44.8 °F /  7.1 °C 29.91 in /  1012.8 hPa NW 1.2 mph /  1.9 km/h   94 % 0.00 in /  0 mm 0.0 W/m2 BKN
04:53 46.4 °F /  8 °C 44.8 °F /  7.1 °C 29.91 in /  1012.8 hPa WNW 5.0 mph /  8 km/h 5.0 mph /  8 km/h 94 % 0.00 in /  0 mm 0.0 W/m2 BKN
04:58 46.5 °F /  8.1 °C 45.1 °F /  7.3 °C 29.91 in /  1012.8 hPa NW 3.5 mph /  5.6 km/h 3.5 mph /  5.6 km/h 95 % 0.00 in /  0 mm 0.0 W/m2 BKN
05:03 46.5 °F /  8.1 °C 45.1 °F /  7.3 °C 29.91 in /  1012.8 hPa WNW 4.0 mph /  6.4 km/h 4.0 mph /  6.4 km/h 95 % 0.01 in /  0.25 mm 0.0 W/m2 RA
05:08 46.6 °F /  8.1 °C 45.2 °F /  7.3 °C 29.92 in /  1013.1 hPa NW 3.5 mph /  5.6 km/h 3.5 mph /  5.6 km/h 95 % 0.01 in /  0.25 mm 0.0 W/m2 BKN
05:13 46.7 °F /  8.2 °C 45.1 °F /  7.3 °C 29.92 in /  1013.1 hPa WNW 4.0 mph /  6.4 km/h 4.0 mph /  6.4 km/h 94 % 0.01 in /  0.25 mm 0.0 W/m2 BKN
05:18 46.8 °F /  8.2 °C 45.2 °F /  7.3 °C 29.92 in /  1013.1 hPa NW 4.6 mph /  7.4 km/h 4.6 mph /  7.4 km/h 94 % 0.01 in /  0.25 mm 0.0 W/m2 BKN
05:23 46.9 °F /  8.3 °C 45.3 °F /  7.4 °C 29.92 in /  1013.1 hPa NW 5.8 mph /  9.3 km/h 5.8 mph /  9.3 km/h 94 % 0.01 in /  0.25 mm 0.0 W/m2 BKN
05:28 46.9 °F /  8.3 °C 45.3 °F /  7.4 °C 29.92 in /  1013.1 hPa NW 3.5 mph /  5.6 km/h 3.5 mph /  5.6 km/h 94 % 0.01 in /  0.25 mm 0.0 W/m2 BKN
05:33 47.0 °F /  8.3 °C 45.4 °F /  7.4 °C 29.92 in /  1013.1 hPa WNW 5.0 mph /  8 km/h 5.0 mph /  8 km/h 94 % 0.01 in /  0.25 mm 0.0 W/m2 BKN
05:38 47.0 °F /  8.3 °C 45.4 °F /  7.4 °C 29.92 in /  1013.1 hPa WNW 3.5 mph /  5.6 km/h 3.5 mph /  5.6 km/h 94 % 0.01 in /  0.25 mm 0.0 W/m2 BKN
05:43 47.1 °F /  8.4 °C 45.5 °F /  7.5 °C 29.92 in /  1013.1 hPa NNW 4.6 mph /  7.4 km/h 4.6 mph /  7.4 km/h 94 % 0.01 in /  0.25 mm 0.0 W/m2 BKN
05:48 47.2 °F /  8.4 °C 45.6 °F /  7.6 °C 29.92 in /  1013.1 hPa NW 8.1 mph /  13 km/h 8.1 mph /  13 km/h 94 % 0.01 in /  0.25 mm 0.0 W/m2 BKN
05:53 47.3 °F /  8.5 °C 45.7 °F /  7.6 °C 29.92 in /  1013.1 hPa WNW 4.0 mph /  6.4 km/h 4.0 mph /  6.4 km/h 94 % 0.01 in /  0.25 mm 0.0 W/m2 BKN
05:58 47.3 °F /  8.5 °C 45.7 °F /  7.6 °C 29.92 in /  1013.1 hPa NW 5.8 mph /  9.3 km/h 5.8 mph /  9.3 km/h 94 % 0.01 in /  0.25 mm 0.0 W/m2 BKN
06:03 47.3 °F /  8.5 °C 45.7 °F /  7.6 °C 29.92 in /  1013.1 hPa NW 6.9 mph /  11.1 km/h 6.9 mph /  11.1 km/h 94 % 0.00 in /  0 mm 0.0 W/m2 BKN
06:08 47.3 °F /  8.5 °C 45.7 °F /  7.6 °C 29.92 in /  1013.1 hPa WNW 3.5 mph /  5.6 km/h 3.5 mph /  5.6 km/h 94 % 0.00 in /  0 mm 0.0 W/m2 BKN
06:11 47.4 °F /  8.6 °C 45.5 °F /  7.5 °C 29.92 in /  1013.1 hPa NW 6.9 mph /  11.1 km/h 6.9 mph /  11.1 km/h 93 % 0.00 in /  0 mm 0.0 W/m2 BKN
06:16 47.4 °F /  8.6 °C 45.5 °F /  7.5 °C 29.92 in /  1013.1 hPa West 6.9 mph /  11.1 km/h 6.9 mph /  11.1 km/h 93 % 0.00 in /  0 mm 0.0 W/m2 BKN
06:21 47.5 °F /  8.6 °C 45.6 °F /  7.6 °C 29.92 in /  1013.1 hPa West 6.9 mph /  11.1 km/h 6.9 mph /  11.1 km/h 93 % 0.00 in /  0 mm 0.0 W/m2 BKN
06:26 47.6 °F /  8.7 °C 45.7 °F /  7.6 °C 29.92 in /  1013.1 hPa West 9.2 mph /  14.8 km/h 9.2 mph /  14.8 km/h 93 % 0.00 in /  0 mm 0.0 W/m2 BKN
06:31 47.7 °F /  8.7 °C 45.8 °F /  7.7 °C 29.92 in /  1013.1 hPa WSW 12.7 mph /  20.4 km/h 12.7 mph /  20.4 km/h 93 % 0.00 in /  0 mm 0.0 W/m2 BKN
06:36 47.8 °F /  8.8 °C 45.6 °F /  7.6 °C 29.92 in /  1013.1 hPa West 10.4 mph /  16.7 km/h 10.4 mph /  16.7 km/h 92 % 0.00 in /  0 mm 7.0 W/m2 BKN
06:41 47.8 °F /  8.8 °C 45.6 °F /  7.6 °C 29.92 in /  1013.1 hPa West 7.0 mph /  11.3 km/h 7.0 mph /  11.3 km/h 92 % 0.00 in /  0 mm 12.0 W/m2 BKN
06:46 47.9 °F /  8.8 °C 45.4 °F /  7.4 °C 29.92 in /  1013.1 hPa WSW 6.9 mph /  11.1 km/h 6.9 mph /  11.1 km/h 91 % 0.00 in /  0 mm 16.0 W/m2 BKN
06:51 47.9 °F /  8.8 °C 45.4 °F /  7.4 °C 29.92 in /  1013.1 hPa WSW 11.5 mph /  18.5 km/h 11.5 mph /  18.5 km/h 91 % 0.00 in /  0 mm 19.0 W/m2 BKN
06:56 48.1 °F /  8.9 °C 45.3 °F /  7.4 °C 29.93 in /  1013.4 hPa SW 11.5 mph /  18.5 km/h 11.5 mph /  18.5 km/h 90 % 0.00 in /  0 mm 25.0 W/m2 BKN
07:01 48.2 °F /  9 °C 45.4 °F /  7.4 °C 29.93 in /  1013.4 hPa WSW 13.8 mph /  22.2 km/h 13.8 mph /  22.2 km/h 90 % 0.00 in /  0 mm 33.0 W/m2 SCT
07:06 48.2 °F /  9 °C 45.1 °F /  7.3 °C 29.93 in /  1013.4 hPa West 3.5 mph /  5.6 km/h 3.5 mph /  5.6 km/h 89 % 0.00 in /  0 mm 32.0 W/m2 SCT
07:11 48.3 °F /  9.1 °C 45.2 °F /  7.3 °C 29.93 in /  1013.4 hPa West 10.4 mph /  16.7 km/h 10.4 mph /  16.7 km/h 89 % 0.00 in /  0 mm 35.0 W/m2 SCT
07:16 48.3 °F /  9.1 °C 44.9 °F /  7.2 °C 29.93 in /  1013.4 hPa WSW 11.5 mph /  18.5 km/h 11.5 mph /  18.5 km/h 88 % 0.00 in /  0 mm 62.0 W/m2 SCT
07:21 48.5 °F /  9.2 °C 45.1 °F /  7.3 °C 29.93 in /  1013.4 hPa West 6.9 mph /  11.1 km/h 6.9 mph /  11.1 km/h 88 % 0.00 in /  0 mm 74.0 W/m2 SCT
07:26 48.6 °F /  9.2 °C 44.9 °F /  7.2 °C 29.93 in /  1013.4 hPa WSW 3.5 mph /  5.6 km/h 3.5 mph /  5.6 km/h 87 % 0.00 in /  0 mm 88.0 W/m2 SCT
07:31 48.7 °F /  9.3 °C 44.7 °F /  7.1 °C 29.93 in /  1013.4 hPa West 10.4 mph /  16.7 km/h 10.4 mph /  16.7 km/h 86 % 0.00 in /  0 mm 37.0 W/m2 SCT
07:36 48.7 °F /  9.3 °C 44.7 °F /  7.1 °C 29.93 in /  1013.4 hPa WSW 11.5 mph /  18.5 km/h 11.5 mph /  18.5 km/h 86 % 0.00 in /  0 mm 97.0 W/m2 SCT
07:41 48.8 °F /  9.3 °C 44.5 °F /  6.9 °C 29.93 in /  1013.4 hPa West 4.0 mph /  6.4 km/h 4.0 mph /  6.4 km/h 85 % 0.00 in /  0 mm 218.0 W/m2 SCT
07:46 49.1 °F /  9.5 °C 44.8 °F /  7.1 °C 29.93 in /  1013.4 hPa WSW 12.7 mph /  20.4 km/h 12.7 mph /  20.4 km/h 85 % 0.00 in /  0 mm 246.0 W/m2 SCT
07:51 49.5 °F /  9.7 °C 44.9 °F /  7.2 °C 29.94 in /  1013.8 hPa SW 11.5 mph /  18.5 km/h 11.5 mph /  18.5 km/h 84 % 0.00 in /  0 mm 243.0 W/m2 SCT
07:56 49.8 °F /  9.9 °C 45.2 °F /  7.3 °C 29.94 in /  1013.8 hPa WSW 11.5 mph /  18.5 km/h 11.5 mph /  18.5 km/h 84 % 0.00 in /  0 mm 304.0 W/m2 SCT
08:01 50.3 °F /  10.2 °C 45.3 °F /  7.4 °C 29.94 in /  1013.8 hPa WSW 10.4 mph /  16.7 km/h 10.4 mph /  16.7 km/h 83 % 0.00 in /  0 mm 306.0 W/m2 SCT
08:06 50.6 °F /  10.3 °C 45.3 °F /  7.4 °C 29.94 in /  1013.8 hPa WSW 6.9 mph /  11.1 km/h 6.9 mph /  11.1 km/h 82 % 0.00 in /  0 mm 397.0 W/m2 SCT
08:10 51.0 °F /  10.6 °C 45.4 °F /  7.4 °C 29.94 in /  1013.8 hPa SW 8.1 mph /  13 km/h 8.1 mph /  13 km/h 81 % 0.00 in /  0 mm 311.0 W/m2 SCT
08:15 51.2 °F /  10.7 °C 45.2 °F /  7.3 °C 29.94 in /  1013.8 hPa WSW 11.5 mph /  18.5 km/h 11.5 mph /  18.5 km/h 80 % 0.00 in /  0 mm 387.0 W/m2 SCT
08:20 51.5 °F /  10.8 °C 45.5 °F /  7.5 °C 29.94 in /  1013.8 hPa SW 9.0 mph /  14.5 km/h 9.0 mph /  14.5 km/h 80 % 0.00 in /  0 mm 388.0 W/m2 SCT
08:25 51.7 °F /  10.9 °C 45.4 °F /  7.4 °C 29.94 in /  1013.8 hPa WNW 12.0 mph /  19.3 km/h 12.0 mph /  19.3 km/h 79 % 0.00 in /  0 mm 295.0 W/m2 SCT
08:30 52.0 °F /  11.1 °C 45.7 °F /  7.6 °C 29.94 in /  1013.8 hPa WSW 5.0 mph /  8 km/h 5.0 mph /  8 km/h 79 % 0.00 in /  0 mm 408.0 W/m2 SCT
08:35 52.3 °F /  11.3 °C 45.6 °F /  7.6 °C 29.94 in /  1013.8 hPa West 10.0 mph /  16.1 km/h 10.0 mph /  16.1 km/h 78 % 0.00 in /  0 mm 169.0 W/m2 SCT
08:40 52.2 °F /  11.2 °C 45.5 °F /  7.5 °C 29.94 in /  1013.8 hPa WSW 7.0 mph /  11.3 km/h 7.0 mph /  11.3 km/h 78 % 0.00 in /  0 mm 287.0 W/m2 SCT
08:45 52.2 °F /  11.2 °C 45.5 °F /  7.5 °C 29.94 in /  1013.8 hPa West 8.1 mph /  13 km/h 8.1 mph /  13 km/h 78 % 0.00 in /  0 mm 476.0 W/m2 SCT
08:50 52.4 °F /  11.3 °C 45.7 °F /  7.6 °C 29.94 in /  1013.8 hPa SSW 9.2 mph /  14.8 km/h 9.2 mph /  14.8 km/h 78 % 0.00 in /  0 mm 448.0 W/m2 BKN
08:55 52.7 °F /  11.5 °C 46.0 °F /  7.8 °C 29.94 in /  1013.8 hPa SSW 12.7 mph /  20.4 km/h 12.7 mph /  20.4 km/h 78 % 0.00 in /  0 mm 512.0 W/m2 BKN
09:00 53.1 °F /  11.7 °C 46.1 °F /  7.8 °C 29.94 in /  1013.8 hPa SW 11.5 mph /  18.5 km/h 11.5 mph /  18.5 km/h 77 % 0.00 in /  0 mm 214.0 W/m2 BKN
09:05 53.5 °F /  11.9 °C 46.1 °F /  7.8 °C 29.94 in /  1013.8 hPa SW 13.8 mph /  22.2 km/h 13.8 mph /  22.2 km/h 76 % 0.00 in /  0 mm 255.0 W/m2 RA
09:10 53.5 °F /  11.9 °C 46.1 °F /  7.8 °C 29.94 in /  1013.8 hPa SW 11.5 mph /  18.5 km/h 11.5 mph /  18.5 km/h 76 % 0.00 in /  0 mm 246.0 W/m2 BKN
09:15 53.6 °F /  12 °C 46.2 °F /  7.9 °C 29.94 in /  1013.8 hPa SW 7.0 mph /  11.3 km/h 7.0 mph /  11.3 km/h 76 % 0.00 in /  0 mm 348.0 W/m2 BKN
09:20 53.7 °F /  12.1 °C 46.0 °F /  7.8 °C 29.94 in /  1013.8 hPa West 13.8 mph /  22.2 km/h 13.8 mph /  22.2 km/h 75 % 0.00 in /  0 mm 169.0 W/m2 BKN
09:25 53.7 °F /  12.1 °C 46.3 °F /  7.9 °C 29.94 in /  1013.8 hPa SW 9.2 mph /  14.8 km/h 9.2 mph /  14.8 km/h 76 % 0.00 in /  0 mm 213.0 W/m2 BKN
09:30 53.7 °F /  12.1 °C 46.3 °F /  7.9 °C 29.94 in /  1013.8 hPa WSW 11.5 mph /  18.5 km/h 11.5 mph /  18.5 km/h 76 % 0.00 in /  0 mm 213.0 W/m2 BKN
09:35 53.7 °F /  12.1 °C 46.0 °F /  7.8 °C 29.94 in /  1013.8 hPa SW 9.2 mph /  14.8 km/h 9.2 mph /  14.8 km/h 75 % 0.00 in /  0 mm 162.0 W/m2 BKN
09:40 53.9 °F /  12.2 °C 45.8 °F /  7.7 °C 29.94 in /  1013.8 hPa SW 11.5 mph /  18.5 km/h 11.5 mph /  18.5 km/h 74 % 0.00 in /  0 mm 146.0 W/m2 BKN
09:45 53.9 °F /  12.2 °C 45.4 °F /  7.4 °C 29.94 in /  1013.8 hPa South 12.7 mph /  20.4 km/h 12.7 mph /  20.4 km/h 73 % 0.00 in /  0 mm 176.0 W/m2 BKN
09:50 53.8 °F /  12.1 °C 45.0 °F /  7.2 °C 29.94 in /  1013.8 hPa WSW 11.5 mph /  18.5 km/h 11.5 mph /  18.5 km/h 72 % 0.00 in /  0 mm 255.0 W/m2 BKN
09:55 54.9 °F /  12.7 °C 46.0 °F /  7.8 °C 29.94 in /  1013.8 hPa WSW 10.4 mph /  16.7 km/h 10.4 mph /  16.7 km/h 72 % 0.00 in /  0 mm 265.0 W/m2 BKN
10:00 54.8 °F /  12.7 °C 45.9 °F /  7.7 °C 29.94 in /  1013.8 hPa SSW 6.9 mph /  11.1 km/h 6.9 mph /  11.1 km/h 72 % 0.00 in /  0 mm 114.0 W/m2 BKN
10:05 54.2 °F /  12.3 °C 45.7 °F /  7.6 °C 29.94 in /  1013.8 hPa WNW 16.1 mph /  25.9 km/h 16.1 mph /  25.9 km/h 73 % 0.00 in /  0 mm 207.0 W/m2 BKN
10:10 53.9 °F /  12.2 °C 45.4 °F /  7.4 °C 29.94 in /  1013.8 hPa West 11.5 mph /  18.5 km/h 11.5 mph /  18.5 km/h 73 % 0.00 in /  0 mm 255.0 W/m2 BKN
10:15 54.7 °F /  12.6 °C 45.8 °F /  7.7 °C 29.94 in /  1013.8 hPa WSW 13.8 mph /  22.2 km/h 13.8 mph /  22.2 km/h 72 % 0.00 in /  0 mm 255.0 W/m2 BKN
10:20 55.4 °F /  13 °C 45.8 °F /  7.7 °C 29.94 in /  1013.8 hPa West 11.5 mph /  18.5 km/h 11.5 mph /  18.5 km/h 70 % 0.00 in /  0 mm 243.0 W/m2 BKN
10:25 55.9 °F /  13.3 °C 45.1 °F /  7.3 °C 29.94 in /  1013.8 hPa SW 17.3 mph /  27.8 km/h 17.3 mph /  27.8 km/h 67 % 0.00 in /  0 mm 914.0 W/m2 BKN
10:30 56.9 °F /  13.8 °C 46.1 °F /  7.8 °C 29.94 in /  1013.8 hPa WNW 12.0 mph /  19.3 km/h 12.0 mph /  19.3 km/h 67 % 0.00 in /  0 mm 376.0 W/m2 BKN
10:35 56.4 °F /  13.6 °C 44.4 °F /  6.9 °C 29.94 in /  1013.8 hPa SW 12.0 mph /  19.3 km/h 12.0 mph /  19.3 km/h 64 % 0.00 in /  0 mm 188.0 W/m2 BKN
10:40 56.0 °F /  13.3 °C 44.0 °F /  6.7 °C 29.94 in /  1013.8 hPa SW 13.8 mph /  22.2 km/h 13.8 mph /  22.2 km/h 64 % 0.00 in /  0 mm 285.0 W/m2 BKN
10:45 56.1 °F /  13.4 °C 44.5 °F /  6.9 °C 29.94 in /  1013.8 hPa SW 13.8 mph /  22.2 km/h 13.8 mph /  22.2 km/h 65 % 0.00 in /  0 mm 336.0 W/m2 BKN
10:50 56.7 °F /  13.7 °C 44.7 °F /  7.1 °C 29.93 in /  1013.4 hPa SW 15.0 mph /  24.1 km/h 15.0 mph /  24.1 km/h 64 % 0.00 in /  0 mm 285.0 W/m2 BKN
10:53 56.4 °F /  13.6 °C 44.0 °F /  6.7 °C 29.94 in /  1013.8 hPa WSW 17.3 mph /  27.8 km/h 17.3 mph /  27.8 km/h 63 % 0.00 in /  0 mm 142.0 W/m2 BKN
10:59 55.9 °F /  13.3 °C 43.9 °F /  6.6 °C 29.94 in /  1013.8 hPa SW 15.0 mph /  24.1 km/h 15.0 mph /  24.1 km/h 64 % 0.00 in /  0 mm 278.0 W/m2 BKN
11:04 55.9 °F /  13.3 °C 43.9 °F /  6.6 °C 29.94 in /  1013.8 hPa SW 18.4 mph /  29.6 km/h 18.4 mph /  29.6 km/h 64 % 0.00 in /  0 mm 919.0 W/m2 BKN
11:09 56.8 °F /  13.8 °C 43.5 °F /  6.4 °C 29.93 in /  1013.4 hPa SW 20.7 mph /  33.3 km/h 20.7 mph /  33.3 km/h 61 % 0.00 in /  0 mm 199.0 W/m2 BKN
11:14 56.9 °F /  13.8 °C 43.2 °F /  6.2 °C 29.93 in /  1013.4 hPa SW 17.3 mph /  27.8 km/h 17.3 mph /  27.8 km/h 60 % 0.00 in /  0 mm 413.0 W/m2 BKN
11:19 56.9 °F /  13.8 °C 42.7 °F /  5.9 °C 29.94 in /  1013.8 hPa WNW 16.1 mph /  25.9 km/h 16.2 mph /  26.1 km/h 59 % 0.00 in /  0 mm 192.0 W/m2 BKN
11:24 55.0 °F /  12.8 °C 43.0 °F /  6.1 °C 29.94 in /  1013.8 hPa SW 18.4 mph /  29.6 km/h 18.4 mph /  29.6 km/h 64 % 0.00 in /  0 mm 218.0 W/m2 BKN
11:29 53.9 °F /  12.2 °C 44.0 °F /  6.7 °C 29.95 in /  1014.1 hPa SSW 11.5 mph /  18.5 km/h 11.5 mph /  18.5 km/h 69 % 0.00 in /  0 mm 374.0 W/m2 BKN
11:34 54.0 °F /  12.2 °C 44.8 °F /  7.1 °C 29.94 in /  1013.8 hPa WSW 10.4 mph /  16.7 km/h 10.4 mph /  16.7 km/h 71 % 0.00 in /  0 mm 385.0 W/m2 BKN
11:39 54.8 °F /  12.7 °C 45.6 °F /  7.6 °C 29.94 in /  1013.8 hPa WSW 8.1 mph /  13 km/h 8.1 mph /  13 km/h 71 % 0.00 in /  0 mm 383.0 W/m2 BKN
11:44 55.9 °F /  13.3 °C 45.5 °F /  7.5 °C 29.94 in /  1013.8 hPa West 12.7 mph /  20.4 km/h 12.7 mph /  20.4 km/h 68 % 0.00 in /  0 mm 605.0 W/m2 BKN
11:49 56.8 °F /  13.8 °C 45.6 °F /  7.6 °C 29.94 in /  1013.8 hPa SW 17.3 mph /  27.8 km/h 17.3 mph /  27.8 km/h 66 % 0.00 in /  0 mm 1060.0 W/m2 BKN
11:54 56.0 °F /  13.3 °C 46.7 °F /  8.2 °C 29.94 in /  1013.8 hPa WSW 11.5 mph /  18.5 km/h 11.5 mph /  18.5 km/h 71 % 0.01 in /  0.25 mm 183.0 W/m2 RA
11:59 54.1 °F /  12.3 °C 45.6 °F /  7.6 °C 29.94 in /  1013.8 hPa SSW 15.0 mph /  24.1 km/h 15.0 mph /  24.1 km/h 73 % 0.01 in /  0.25 mm 385.0 W/m2 BKN
12:04 53.7 °F /  12.1 °C 46.0 °F /  7.8 °C 29.94 in /  1013.8 hPa SW 11.5 mph /  18.5 km/h 11.5 mph /  18.5 km/h 75 % 0.01 in /  0.25 mm 617.0 W/m2 BKN
12:09 54.2 °F /  12.3 °C 46.4 °F /  8 °C 29.94 in /  1013.8 hPa WSW 11.5 mph /  18.5 km/h 11.5 mph /  18.5 km/h 75 % 0.01 in /  0.25 mm 471.0 W/m2 BKN
12:14 55.4 °F /  13 °C 46.5 °F /  8.1 °C 29.94 in /  1013.8 hPa SSW 10.4 mph /  16.7 km/h 10.4 mph /  16.7 km/h 72 % 0.01 in /  0.25 mm 874.0 W/m2 BKN
12:19 56.4 °F /  13.6 °C 44.8 °F /  7.1 °C 29.94 in /  1013.8 hPa SSW 12.7 mph /  20.4 km/h 12.7 mph /  20.4 km/h 65 % 0.01 in /  0.25 mm 912.0 W/m2 BKN
12:24 57.3 °F /  14.1 °C 45.6 °F /  7.6 °C 29.94 in /  1013.8 hPa SSW 18.4 mph /  29.6 km/h 18.4 mph /  29.6 km/h 65 % 0.01 in /  0.25 mm 912.0 W/m2 BKN
12:29 57.5 °F /  14.2 °C 45.0 °F /  7.2 °C 29.93 in /  1013.4 hPa WSW 13.8 mph /  22.2 km/h 13.8 mph /  22.2 km/h 63 % 0.01 in /  0.25 mm 301.0 W/m2 BKN
12:34 57.1 °F /  13.9 °C 44.6 °F /  7 °C 29.93 in /  1013.4 hPa SW 18.4 mph /  29.6 km/h 18.4 mph /  29.6 km/h 63 % 0.01 in /  0.25 mm 272.0 W/m2 BKN
12:39 57.3 °F /  14.1 °C 44.4 °F /  6.9 °C 29.93 in /  1013.4 hPa SW 12.7 mph /  20.4 km/h 12.7 mph /  20.4 km/h 62 % 0.01 in /  0.25 mm 306.0 W/m2 BKN
12:44 57.8 °F /  14.3 °C 43.6 °F /  6.4 °C 29.93 in /  1013.4 hPa SW 21.0 mph /  33.8 km/h 21.0 mph /  33.8 km/h 59 % 0.01 in /  0.25 mm 234.0 W/m2 BKN
12:49 57.4 °F /  14.1 °C 42.7 °F /  5.9 °C 29.94 in /  1013.8 hPa SW 13.8 mph /  22.2 km/h 13.8 mph /  22.2 km/h 58 % 0.01 in /  0.25 mm 290.0 W/m2 BKN
12:54 57.1 °F /  13.9 °C 42.5 °F /  5.8 °C 29.94 in /  1013.8 hPa WSW 15.0 mph /  24.1 km/h 15.0 mph /  24.1 km/h 58 % 0.00 in /  0 mm 387.0 W/m2 BKN
12:59 56.7 °F /  13.7 °C 43.4 °F /  6.3 °C 29.94 in /  1013.8 hPa WSW 23.0 mph /  37 km/h 23.0 mph /  37 km/h 61 % 0.00 in /  0 mm 408.0 W/m2 BKN
13:04 57.1 °F /  13.9 °C 44.6 °F /  7 °C 29.94 in /  1013.8 hPa WSW 17.3 mph /  27.8 km/h 17.3 mph /  27.8 km/h 63 % 0.00 in /  0 mm 851.0 W/m2 BKN
13:09 57.7 °F /  14.3 °C 42.1 °F /  5.6 °C 29.94 in /  1013.8 hPa SSW 11.5 mph /  18.5 km/h 11.5 mph /  18.5 km/h 56 % 0.00 in /  0 mm 835.0 W/m2 BKN
13:14 58.5 °F /  14.7 °C 41.9 °F /  5.5 °C 29.93 in /  1013.4 hPa SSW 21.0 mph /  33.8 km/h 21.0 mph /  33.8 km/h 54 % 0.00 in /  0 mm 849.0 W/m2 BKN
13:19 59.1 °F /  15.1 °C 42.0 °F /  5.6 °C 29.93 in /  1013.4 hPa WSW 18.4 mph /  29.6 km/h 18.4 mph /  29.6 km/h 53 % 0.01 in /  0.25 mm 854.0 W/m2 RA
13:24 58.9 °F /  14.9 °C 41.8 °F /  5.4 °C 29.93 in /  1013.4 hPa SSW 20.7 mph /  33.3 km/h 20.7 mph /  33.3 km/h 53 % 0.01 in /  0.25 mm 294.0 W/m2 BKN
13:29 58.7 °F /  14.8 °C 42.6 °F /  5.9 °C 29.93 in /  1013.4 hPa WSW 19.6 mph /  31.5 km/h 19.6 mph /  31.5 km/h 55 % 0.01 in /  0.25 mm 1016.0 W/m2 BKN
13:34 58.7 °F /  14.8 °C 38.5 °F /  3.6 °C 29.93 in /  1013.4 hPa SW 20.7 mph /  33.3 km/h 20.7 mph /  33.3 km/h 47 % 0.01 in /  0.25 mm 898.0 W/m2 BKN
13:39 59.0 °F /  15 °C 38.8 °F /  3.8 °C 29.94 in /  1013.8 hPa WSW 11.5 mph /  18.5 km/h 11.5 mph /  18.5 km/h 47 % 0.01 in /  0.25 mm 919.0 W/m2 BKN
13:44 59.4 °F /  15.2 °C 37.5 °F /  3.1 °C 29.94 in /  1013.8 hPa SSW 16.1 mph /  25.9 km/h 16.1 mph /  25.9 km/h 44 % 0.01 in /  0.25 mm 919.0 W/m2 BKN
13:49 59.0 °F /  15 °C 37.1 °F /  2.8 °C 29.93 in /  1013.4 hPa WSW 20.7 mph /  33.3 km/h 20.7 mph /  33.3 km/h 44 % 0.01 in /  0.25 mm 874.0 W/m2 BKN
13:54 59.9 °F /  15.5 °C 38.5 °F /  3.6 °C 29.94 in /  1013.8 hPa West 16.1 mph /  25.9 km/h 16.1 mph /  25.9 km/h 45 % 0.01 in /  0.25 mm 330.0 W/m2 BKN
13:59 59.5 °F /  15.3 °C 37.6 °F /  3.1 °C 29.94 in /  1013.8 hPa West 20.7 mph /  33.3 km/h 20.7 mph /  33.3 km/h 44 % 0.01 in /  0.25 mm 401.0 W/m2 BKN
14:01 59.2 °F /  15.1 °C 37.9 °F /  3.3 °C 29.94 in /  1013.8 hPa West 13.8 mph /  22.2 km/h 13.8 mph /  22.2 km/h 45 % 0.01 in /  0.25 mm 939.0 W/m2 BKN
14:06 59.4 °F /  15.2 °C 38.0 °F /  3.3 °C 29.93 in /  1013.4 hPa SW 23.0 mph /  37 km/h 23.0 mph /  37 km/h 45 % 0.01 in /  0.25 mm 346.0 W/m2 BKN
14:11 58.9 °F /  14.9 °C 38.1 °F /  3.4 °C 29.94 in /  1013.8 hPa SW 16.1 mph /  25.9 km/h 16.1 mph /  25.9 km/h 46 % 0.01 in /  0.25 mm 253.0 W/m2 BKN
14:16 58.0 °F /  14.4 °C 37.9 °F /  3.3 °C 29.94 in /  1013.8 hPa WSW 15.0 mph /  24.1 km/h 15.0 mph /  24.1 km/h 47 % 0.01 in /  0.25 mm 246.0 W/m2 BKN
14:21 58.2 °F /  14.6 °C 39.6 °F /  4.2 °C 29.94 in /  1013.8 hPa SW 23.0 mph /  37 km/h 23.0 mph /  37 km/h 50 % 0.00 in /  0 mm 1025.0 W/m2 BKN
14:26 58.4 °F /  14.7 °C 39.8 °F /  4.3 °C 29.94 in /  1013.8 hPa SW 16.1 mph /  25.9 km/h 16.1 mph /  25.9 km/h 50 % 0.00 in /  0 mm 165.0 W/m2 BKN
14:31 57.7 °F /  14.3 °C 39.7 °F /  4.3 °C 29.95 in /  1014.1 hPa SSW 24.2 mph /  38.9 km/h 24.2 mph /  38.9 km/h 51 % 0.00 in /  0 mm 81.0 W/m2 BKN
14:36 56.1 °F /  13.4 °C 41.5 °F /  5.3 °C 29.95 in /  1014.1 hPa SW 27.6 mph /  44.4 km/h 27.6 mph /  44.4 km/h 58 % 0.00 in /  0 mm 265.0 W/m2 BKN
14:41 54.9 °F /  12.7 °C 41.7 °F /  5.4 °C 29.96 in /  1014.4 hPa SW 21.9 mph /  35.2 km/h 21.9 mph /  35.2 km/h 61 % 0.00 in /  0 mm 295.0 W/m2 BKN
14:46 54.2 °F /  12.3 °C 41.0 °F /  5 °C 29.96 in /  1014.4 hPa WSW 19.6 mph /  31.5 km/h 19.6 mph /  31.5 km/h 61 % 0.00 in /  0 mm 292.0 W/m2 BKN
14:51 53.7 °F /  12.1 °C 41.0 °F /  5 °C 29.97 in /  1014.8 hPa West 19.6 mph /  31.5 km/h 19.6 mph /  31.5 km/h 62 % 0.00 in /  0 mm 255.0 W/m2 BKN
14:56 53.5 °F /  11.9 °C 43.2 °F /  6.2 °C 29.97 in /  1014.8 hPa WSW 20.7 mph /  33.3 km/h 20.7 mph /  33.3 km/h 68 % 0.00 in /  0 mm 916.0 W/m2 BKN
15:01 53.9 °F /  12.2 °C 42.8 °F /  6 °C 29.97 in /  1014.8 hPa SW 15.0 mph /  24.1 km/h 15.0 mph /  24.1 km/h 66 % 0.00 in /  0 mm 248.0 W/m2 BKN
15:06 53.8 °F /  12.1 °C 42.7 °F /  5.9 °C 29.97 in /  1014.8 hPa West 12.7 mph /  20.4 km/h 12.7 mph /  20.4 km/h 66 % 0.00 in /  0 mm 114.0 W/m2 BKN
15:11 53.7 °F /  12.1 °C 43.0 °F /  6.1 °C 29.98 in /  1015.1 hPa SSW 12.7 mph /  20.4 km/h 12.7 mph /  20.4 km/h 67 % 0.00 in /  0 mm 174.0 W/m2 BKN
15:16 53.5 °F /  11.9 °C 43.6 °F /  6.4 °C 29.97 in /  1014.8 hPa WSW 17.3 mph /  27.8 km/h 17.3 mph /  27.8 km/h 69 % 0.00 in /  0 mm 387.0 W/m2 BKN
15:21 54.0 °F /  12.2 °C 44.4 °F /  6.9 °C 29.97 in /  1014.8 hPa WSW 9.0 mph /  14.5 km/h 9.0 mph /  14.5 km/h 70 % 0.00 in /  0 mm 666.0 W/m2 BKN
15:26 54.6 °F /  12.6 °C 43.9 °F /  6.6 °C 29.97 in /  1014.8 hPa SW 12.7 mph /  20.4 km/h 12.7 mph /  20.4 km/h 67 % 0.00 in /  0 mm 225.0 W/m2 BKN
15:31 54.6 °F /  12.6 °C 43.9 °F /  6.6 °C 29.97 in /  1014.8 hPa SW 10.0 mph /  16.1 km/h 10.0 mph /  16.1 km/h 67 % 0.00 in /  0 mm 65.0 W/m2 BKN
15:36 54.3 °F /  12.4 °C 43.6 °F /  6.4 °C 29.98 in /  1015.1 hPa West 19.6 mph /  31.5 km/h 19.6 mph /  31.5 km/h 67 % 0.00 in /  0 mm 95.0 W/m2 BKN
15:41 53.8 °F /  12.1 °C 42.7 °F /  5.9 °C 29.98 in /  1015.1 hPa South 19.6 mph /  31.5 km/h 19.6 mph /  31.5 km/h 66 % 0.00 in /  0 mm 65.0 W/m2 BKN
15:46 53.3 °F /  11.8 °C 43.4 °F /  6.3 °C 29.98 in /  1015.1 hPa WSW 18.4 mph /  29.6 km/h 18.4 mph /  29.6 km/h 69 % 0.00 in /  0 mm 63.0 W/m2 BKN
15:51 52.1 °F /  11.2 °C 43.7 °F /  6.5 °C 29.99 in /  1015.5 hPa WNW 17.3 mph /  27.8 km/h 17.3 mph /  27.8 km/h 73 % 0.00 in /  0 mm 49.0 W/m2 BKN
15:56 50.6 °F /  10.3 °C 43.7 °F /  6.5 °C 29.99 in /  1015.5 hPa SW 17.3 mph /  27.8 km/h 17.3 mph /  27.8 km/h 77 % 0.01 in /  0.25 mm 125.0 W/m2 RA
16:01 50.3 °F /  10.2 °C 44.7 °F /  7.1 °C 30.00 in /  1015.8 hPa WSW 10.4 mph /  16.7 km/h 10.4 mph /  16.7 km/h 81 % 0.01 in /  0.25 mm 185.0 W/m2 BKN
16:06 50.5 °F /  10.3 °C 45.8 °F /  7.7 °C 29.99 in /  1015.5 hPa SSW 8.1 mph /  13 km/h 8.1 mph /  13 km/h 84 % 0.01 in /  0.25 mm 292.0 W/m2 BKN
16:11 50.5 °F /  10.3 °C 45.5 °F /  7.5 °C 29.99 in /  1015.5 hPa SSW 10.4 mph /  16.7 km/h 10.4 mph /  16.7 km/h 83 % 0.01 in /  0.25 mm 148.0 W/m2 BKN
16:16 50.3 °F /  10.2 °C 45.3 °F /  7.4 °C 30.00 in /  1015.8 hPa West 10.4 mph /  16.7 km/h 10.4 mph /  16.7 km/h 83 % 0.01 in /  0.25 mm 121.0 W/m2 BKN
16:21 50.3 °F /  10.2 °C 45.0 °F /  7.2 °C 30.00 in /  1015.8 hPa SW 8.1 mph /  13 km/h 8.1 mph /  13 km/h 82 % 0.01 in /  0.25 mm 193.0 W/m2 BKN
16:26 50.5 °F /  10.3 °C 45.2 °F /  7.3 °C 30.00 in /  1015.8 hPa SW 7.0 mph /  11.3 km/h 7.0 mph /  11.3 km/h 82 % 0.02 in /  0.51 mm 134.0 W/m2 RA
16:31 50.7 °F /  10.4 °C 45.1 °F /  7.3 °C 30.00 in /  1015.8 hPa WSW 8.1 mph /  13 km/h 8.1 mph /  13 km/h 81 % 0.02 in /  0.51 mm 111.0 W/m2 BKN
16:36 50.9 °F /  10.5 °C 45.3 °F /  7.4 °C 30.00 in /  1015.8 hPa SW 6.0 mph /  9.7 km/h 6.0 mph /  9.7 km/h 81 % 0.02 in /  0.51 mm 128.0 W/m2 BKN
16:38 51.0 °F /  10.6 °C 45.0 °F /  7.2 °C 30.00 in /  1015.8 hPa SW 8.1 mph /  13 km/h 8.1 mph /  13 km/h 80 % 0.02 in /  0.51 mm 132.0 W/m2 BKN
16:43 51.4 °F /  10.8 °C 45.1 °F /  7.3 °C 30.00 in /  1015.8 hPa SW 10.4 mph /  16.7 km/h 10.4 mph /  16.7 km/h 79 % 0.02 in /  0.51 mm 155.0 W/m2 BKN
16:48 51.9 °F /  11.1 °C 44.9 °F /  7.2 °C 30.00 in /  1015.8 hPa SSW 11.5 mph /  18.5 km/h 11.5 mph /  18.5 km/h 77 % 0.02 in /  0.51 mm 193.0 W/m2 BKN
16:53 52.3 °F /  11.3 °C 43.5 °F /  6.4 °C 30.00 in /  1015.8 hPa SW 23.0 mph /  37 km/h 23.0 mph /  37 km/h 72 % 0.01 in /  0.25 mm 234.0 W/m2 BKN
16:58 52.6 °F /  11.4 °C 43.5 °F /  6.4 °C 30.01 in /  1016.1 hPa SSW 11.5 mph /  18.5 km/h 11.5 mph /  18.5 km/h 71 % 0.01 in /  0.25 mm 67.0 W/m2 BKN
17:01 52.7 °F /  11.5 °C 43.9 °F /  6.6 °C 30.01 in /  1016.1 hPa SSW 11.0 mph /  17.7 km/h 11.0 mph /  17.7 km/h 72 % 0.01 in /  0.25 mm 42.0 W/m2 BKN
17:06 52.6 °F /  11.4 °C 44.5 °F /  6.9 °C 30.01 in /  1016.1 hPa SSW 8.1 mph /  13 km/h 8.1 mph /  13 km/h 74 % 0.01 in /  0.25 mm 12.0 W/m2 BKN
17:08 52.5 °F /  11.4 °C 44.1 °F /  6.7 °C 30.01 in /  1016.1 hPa SSW 8.1 mph /  13 km/h 8.1 mph /  13 km/h 73 % 0.01 in /  0.25 mm 14.0 W/m2 BKN
17:13 52.1 °F /  11.2 °C 43.7 °F /  6.5 °C 30.02 in /  1016.5 hPa SSW 13.8 mph /  22.2 km/h 13.8 mph /  22.2 km/h 73 % 0.01 in /  0.25 mm 53.0 W/m2 BKN
17:18 51.7 °F /  10.9 °C 43.7 °F /  6.5 °C 30.02 in /  1016.5 hPa SW 17.3 mph /  27.8 km/h 17.3 mph /  27.8 km/h 74 % 0.01 in /  0.25 mm 42.0 W/m2 SCT
17:23 51.4 °F /  10.8 °C 43.0 °F /  6.1 °C 30.02 in /  1016.5 hPa SSW 13.8 mph /  22.2 km/h 13.8 mph /  22.2 km/h 73 % 0.01 in /  0.25 mm 58.0 W/m2 SCT
17:28 51.3 °F /  10.7 °C 42.9 °F /  6.1 °C 30.03 in /  1016.8 hPa SSW 11.5 mph /  18.5 km/h 11.5 mph /  18.5 km/h 73 % 0.00 in /  0 mm 60.0 W/m2 SCT
Melbourne Forecast
About Melbourne | City of Melbourne official website